Time;durP1;ratioP1;P1;durP2;ratioP2;P2;SDS_P1;SDS_P2;PMS_P1;PMS_P2;Temp;Humidity;BMP_temperature;BMP_pressure;BME280_temperature;BME280_humidity;BME280_pressure;Samples;Min_cycle;Max_cycle;Signal;HPM_P1;HPM_P2
2022/01/13 00:01:02;;;;;;;76.47;21.13;;;;;;;-146.48;100.00;44661.41;5323388;28;20043;-67
2022/01/13 00:03:34;;;;;;;89.53;23.20;;;;;;;-146.48;100.00;44599.56;5323991;28;20596;-68
2022/01/13 00:06:05;;;;;;;60.63;20.37;;;;;;;-146.48;100.00;44655.44;5322327;28;20028;-67
2022/01/13 00:08:36;;;;;;;81.63;21.23;;;;;;;-146.48;100.00;44701.34;5323752;28;20103;-67
2022/01/13 00:11:08;;;;;;;89.93;22.07;;;;;;;-146.48;100.00;44849.03;5324012;28;20020;-68
2022/01/13 00:21:52;;;;;;;92.70;22.47;;;;;;;-146.48;100.00;44837.06;5323221;28;20035;-68
2022/01/13 00:24:23;;;;;;;82.87;21.53;;;;;;;-146.48;100.00;44874.97;5323763;28;20027;-67
2022/01/13 00:26:55;;;;;;;76.27;18.83;;;;;;;-146.48;100.00;44789.16;5322232;28;20031;-68
2022/01/13 00:29:30;;;;;;;64.63;20.13;;;;;;;-146.48;100.00;44789.16;5323640;28;20076;-68
2022/01/13 00:32:02;;;;;;;62.03;21.03;;;;;;;-146.48;100.00;44845.03;5323109;28;20454;-67
2022/01/13 00:34:33;;;;;;;79.83;21.90;;;;;;;-146.48;100.00;44890.94;5322750;28;20055;-67
2022/01/13 00:37:04;;;;;;;55.23;20.60;;;;;;;-146.48;100.00;44900.94;5323103;28;20490;-68
2022/01/13 00:39:36;;;;;;;82.10;21.87;;;;;;;-146.48;100.00;44916.91;5322737;28;20114;-67
2022/01/13 00:42:08;;;;;;;71.07;21.70;;;;;;;-146.48;100.00;45042.66;5323547;28;20028;-68
2022/01/13 00:44:39;;;;;;;79.37;22.30;;;;;;;-146.48;100.00;44962.81;5327290;28;20359;-68
2022/01/13 00:47:11;;;;;;;67.80;22.60;;;;;;;-146.48;100.00;44944.84;5327089;28;20023;-68
2022/01/13 00:49:42;;;;;;;75.87;21.17;;;;;;;-146.48;100.00;44865.00;5326940;28;20040;-67
2022/01/13 00:52:14;;;;;;;70.40;20.47;;;;;;;-146.48;100.00;44807.13;5327993;28;20040;-67
2022/01/13 00:54:45;;;;;;;64.23;19.63;;;;;;;-146.48;100.00;44835.06;5326471;28;20024;-67
2022/01/13 00:57:16;;;;;;;56.67;19.20;;;;;;;-146.48;100.00;44817.09;5327737;28;20027;-67
2022/01/13 00:59:47;;;;;;;60.13;20.83;;;;;;;-146.48;100.00;44777.19;5326874;28;20424;-68
2022/01/13 01:02:19;;;;;;;53.23;18.70;;;;;;;-146.48;100.00;44865.00;5326600;28;20054;-67
2022/01/13 01:04:50;;;;;;;58.30;19.00;;;;;;;-146.48;100.00;44902.94;5327027;28;20400;-68
2022/01/13 01:07:21;;;;;;;49.13;18.70;;;;;;;-146.48;100.00;44807.13;5327583;28;20028;-68
2022/01/13 01:09:55;;;;;;;66.10;19.70;;;;;;;-146.48;100.00;44831.06;5326189;28;20094;-68
2022/01/13 01:12:26;;;;;;;48.37;19.80;;;;;;;-146.48;100.00;44882.97;5327394;28;20462;-67
2022/01/13 01:14:58;;;;;;;39.07;17.70;;;;;;;-146.48;100.00;44992.75;5326025;28;20432;-68
2022/01/13 01:17:30;;;;;;;60.17;18.53;;;;;;;-146.48;100.00;44888.94;5327480;28;20023;-68
2022/01/13 01:20:07;;;;;;;53.83;18.47;;;;;;;-146.48;100.00;44873.00;5326692;28;20039;-67
2022/01/13 01:22:54;;;;;;;48.87;18.00;;;;;;;-146.48;100.00;44910.91;5325867;28;20023;-68
2022/01/13 01:28:01;;;;;;;47.50;17.77;;;;;;;-146.48;100.00;44777.19;5326762;28;20028;-68
2022/01/13 01:30:43;;;;;;;61.17;17.10;;;;;;;-146.48;100.00;44727.28;5326165;28;20102;-67
2022/01/13 01:33:15;;;;;;;50.40;17.37;;;;;;;-146.48;100.00;44769.19;5316256;27;20055;-67
2022/01/13 01:35:48;;;;;;;45.27;16.60;;;;;;;-146.48;100.00;44753.22;5303017;28;20024;-67
2022/01/13 01:38:21;;;;;;;42.23;17.63;;;;;;;-146.48;100.00;44737.25;5305288;28;20426;-67
2022/01/13 01:40:52;;;;;;;35.33;15.73;;;;;;;-146.48;100.00;44657.44;5304768;28;20024;-67
2022/01/13 01:43:25;;;;;;;33.77;16.53;;;;;;;-146.48;100.00;44701.34;5304750;28;20054;-67
2022/01/13 01:45:59;;;;;;;33.83;14.97;;;;;;;-146.48;100.00;44707.31;5304181;28;20067;-67
2022/01/13 01:48:34;;;;;;;41.17;14.13;;;;;;;-146.48;100.00;44631.47;5304284;28;20441;-68
2022/01/13 01:51:07;;;;;;;55.57;16.20;;;;;;;-146.48;100.00;44705.31;5302691;28;20065;-68
2022/01/13 01:53:39;;;;;;;51.57;15.53;;;;;;;-146.48;100.00;44715.31;5302972;28;20042;-68
2022/01/13 01:56:10;;;;;;;46.57;16.57;;;;;;;-146.48;100.00;44687.38;5303967;28;20380;-67
2022/01/13 01:58:41;;;;;;;54.10;15.87;;;;;;;-146.48;100.00;44651.44;5302781;28;20081;-67
2022/01/13 02:01:13;;;;;;;46.73;14.77;;;;;;;-146.48;100.00;44621.50;5304330;28;20020;-68
2022/01/13 02:03:44;;;;;;;45.23;14.17;;;;;;;-146.48;100.00;44719.31;5303276;28;20032;-68
2022/01/13 02:06:17;;;;;;;47.97;14.80;;;;;;;-146.48;100.00;44723.28;5302942;28;20039;-68
2022/01/13 02:08:48;;;;;;;52.27;13.90;;;;;;;-146.48;100.00;44579.59;5300550;28;20106;-68
2022/01/13 02:11:20;;;;;;;55.67;14.20;;;;;;;-146.48;100.00;44639.47;5301813;28;20122;-68
2022/01/13 02:13:54;;;;;;;49.83;14.07;;;;;;;-146.48;100.00;44667.41;5301775;28;20034;-68
2022/01/13 02:19:07;;;;;;;56.80;13.37;;;;;;;-146.48;100.00;44773.19;5301084;28;20036;-68
2022/01/13 02:21:38;;;;;;;50.23;14.60;;;;;;;-146.48;100.00;44797.13;5301175;28;20150;-68
2022/01/13 02:24:10;;;;;;;60.87;14.33;;;;;;;-146.48;100.00;44789.16;5302584;28;20031;-69
2022/01/13 02:26:42;;;;;;;56.70;13.00;;;;;;;-146.48;100.00;44753.22;5300959;28;20047;-68
2022/01/13 02:29:13;;;;;;;62.37;13.07;;;;;;;-146.48;100.00;44611.53;5302129;28;20062;-68
2022/01/13 02:31:44;;;;;;;48.50;13.50;;;;;;;-146.48;100.00;44597.56;5302673;28;20046;-68
2022/01/13 02:34:16;;;;;;;44.30;13.10;;;;;;;-146.48;100.00;44589.56;5302847;28;20089;-68
2022/01/13 02:36:54;;;;;;;59.80;13.90;;;;;;;-146.48;100.00;44565.63;5302630;28;20020;-69
2022/01/13 02:39:29;;;;;;;48.27;14.70;;;;;;;-146.48;100.00;44475.81;5302692;28;20028;-68
2022/01/13 02:42:03;;;;;;;59.50;13.07;;;;;;;-146.48;100.00;44437.88;5302690;28;20641;-68
2022/01/13 02:44:38;;;;;;;60.27;14.37;;;;;;;-146.48;100.00;44390.00;5303150;28;20024;-69
2022/01/13 02:47:21;;;;;;;59.97;15.40;;;;;;;-146.48;100.00;44374.03;5302465;28;20494;-68
2022/01/13 02:49:52;;;;;;;41.90;13.40;;;;;;;-146.48;100.00;44443.88;5267936;28;1006659;-68
2022/01/13 02:52:24;;;;;;;48.00;14.00;;;;;;;-146.48;100.00;44401.97;5304047;28;20031;-68
2022/01/13 02:54:55;;;;;;;39.33;14.03;;;;;;;-146.48;100.00;44521.72;5302615;28;20040;-70
2022/01/13 02:57:27;;;;;;;39.17;14.13;;;;;;;-146.48;100.00;44384.00;5304237;28;20028;-69
2022/01/13 02:59:59;;;;;;;63.77;16.50;;;;;;;-146.48;100.00;44415.94;5303455;28;20115;-69
2022/01/13 03:02:31;;;;;;;51.47;13.63;;;;;;;-146.48;100.00;44437.88;5303277;28;20450;-69
2022/01/13 03:05:03;;;;;;;53.70;15.30;;;;;;;-146.48;100.00;44521.72;5302478;28;20028;-69
2022/01/13 03:07:34;;;;;;;54.27;15.47;;;;;;;-146.48;100.00;44551.66;5303152;28;20032;-69
2022/01/13 03:10:07;;;;;;;47.00;14.97;;;;;;;-146.48;100.00;44537.69;5303456;28;20039;-69
2022/01/13 03:12:42;;;;;;;52.90;13.93;;;;;;;-146.48;100.00;44527.69;5303241;28;20545;-69
2022/01/13 03:15:13;;;;;;;61.60;16.13;;;;;;;-146.48;100.00;44513.72;5302941;28;20028;-68
2022/01/13 03:17:45;;;;;;;64.17;16.23;;;;;;;-146.48;100.00;44537.69;5302888;28;20103;-70
2022/01/13 03:20:16;;;;;;;58.27;16.47;;;;;;;-146.48;100.00;44613.53;5303672;28;20020;-67
2022/01/13 03:22:47;;;;;;;69.23;16.70;;;;;;;-146.48;100.00;44577.59;5302480;28;20095;-70
2022/01/13 03:25:23;;;;;;;69.97;17.50;;;;;;;-146.48;100.00;44625.50;5303428;28;20105;-69
2022/01/13 03:28:05;;;;;;;62.37;17.13;;;;;;;-146.48;100.00;44681.38;5302959;28;20024;-69
2022/01/13 03:30:36;;;;;;;59.13;17.50;;;;;;;-146.48;100.00;44777.19;5302458;28;20024;-69
2022/01/13 03:33:08;;;;;;;60.25;17.65;;;;;;;-146.48;100.00;44691.34;5303177;28;20089;-68
2022/01/13 03:35:41;;;;;;;66.80;18.67;;;;;;;-146.48;100.00;44771.19;5301773;28;20525;-68
2022/01/13 03:38:13;;;;;;;73.20;20.10;;;;;;;-146.48;100.00;44755.22;5303054;28;20035;-68
2022/01/13 03:40:44;;;;;;;73.17;19.20;;;;;;;-146.48;100.00;44799.13;5302579;28;20352;-68
2022/01/13 03:43:17;;;;;;;53.97;18.95;;;;;;;-146.48;100.00;44825.09;5302590;28;20032;-69
2022/01/13 03:45:48;;;;;;;62.27;20.13;;;;;;;-146.48;100.00;44783.16;5302787;28;20031;-69
2022/01/13 03:48:20;;;;;;;65.87;19.80;;;;;;;-146.48;100.00;44745.25;5302921;28;20055;-68
2022/01/13 03:50:51;;;;;;;80.97;21.00;;;;;;;-146.48;100.00;44673.41;5301642;28;20503;-67
2022/01/13 03:53:28;;;;;;;60.33;19.87;;;;;;;-146.48;100.00;44699.34;5302924;28;20531;-67
2022/01/13 03:56:47;;;;;;;66.47;21.37;;;;;;;-146.48;100.00;44966.78;5302391;28;20027;-67
2022/01/13 03:59:46;;;;;;;64.78;18.98;;;;;;;-146.48;100.00;44882.97;5302839;28;20035;-67
2022/01/13 04:02:17;;;;;;;61.22;18.45;;;;;;;-146.48;100.00;44781.16;5303038;28;20077;-68
2022/01/13 04:04:49;;;;;;;55.23;21.47;;;;;;;-146.48;100.00;44797.13;5301427;28;20032;-68
2022/01/13 04:07:23;;;;;;;63.80;21.13;;;;;;;-146.48;100.00;44894.94;5302874;28;20012;-68
2022/01/13 04:09:54;;;;;;;63.67;20.93;;;;;;;-146.48;100.00;44857.03;5293871;28;20062;-68
2022/01/13 04:12:27;;;;;;;72.95;22.55;;;;;;;-146.48;100.00;44861.00;5280452;28;20552;-68
2022/01/13 04:15:01;;;;;;;54.97;21.73;;;;;;;-146.48;100.00;44867.00;5280053;28;20025;-68
2022/01/13 04:17:32;;;;;;;60.23;21.50;;;;;;;-146.48;100.00;44779.19;5279870;28;20391;-69
2022/01/13 04:20:04;;;;;;;69.37;20.87;;;;;;;-146.48;100.00;44543.66;5281006;28;20028;-69
2022/01/13 04:22:35;;;;;;;60.13;20.50;;;;;;;-146.48;100.00;44435.91;5281872;28;20054;-69
2022/01/13 04:25:07;;;;;;;60.60;20.20;;;;;;;-146.48;100.00;44505.75;5280292;28;20028;-69
2022/01/13 04:27:43;;;;;;;56.20;19.53;;;;;;;-146.48;100.00;44487.78;5281052;28;20033;-69
2022/01/13 04:32:45;;;;;;;73.67;20.77;;;;;;;-146.48;100.00;44525.69;5279734;28;20109;-69
2022/01/13 04:35:17;;;;;;;65.07;20.70;;;;;;;-146.48;100.00;44453.84;5281648;28;20082;-69
2022/01/13 04:37:48;;;;;;;83.38;21.67;;;;;;;-146.48;100.00;44503.75;5280965;28;20024;-69
2022/01/13 04:40:20;;;;;;;80.10;22.70;;;;;;;-146.48;100.00;44495.75;5281054;28;20019;-69
2022/01/13 04:42:54;;;;;;;84.87;23.00;;;;;;;-146.48;100.00;44519.72;5281004;28;20029;-69
2022/01/13 04:45:26;;;;;;;73.77;22.40;;;;;;;-146.48;100.00;44491.78;5281068;28;20364;-69
2022/01/13 04:47:57;;;;;;;89.57;23.57;;;;;;;-146.48;100.00;44541.66;5280132;28;20044;-69
2022/01/13 04:50:29;;;;;;;81.20;23.30;;;;;;;-146.48;100.00;44539.69;5281196;28;20067;-69
2022/01/13 04:53:00;;;;;;;82.40;24.03;;;;;;;-146.48;100.00;44505.75;5280129;28;20340;-69
2022/01/13 04:55:34;;;;;;;84.63;25.55;;;;;;;-146.48;100.00;44493.78;5281258;28;20020;-69
2022/01/13 04:58:06;;;;;;;74.90;23.33;;;;;;;-146.48;100.00;44499.75;5280984;28;20024;-69
2022/01/13 05:00:37;;;;;;;94.40;23.43;;;;;;;-146.48;100.00;44591.56;5279885;28;20028;-69
2022/01/13 05:03:09;;;;;;;74.43;22.93;;;;;;;-146.48;100.00;44651.44;5281355;28;20410;-69
2022/01/13 05:05:40;;;;;;;82.73;23.40;;;;;;;-146.48;100.00;44679.38;5280515;28;20368;-69
2022/01/13 05:08:11;;;;;;;85.10;24.40;;;;;;;-146.48;100.00;44687.38;5280420;28;20032;-69
2022/01/13 05:10:43;;;;;;;85.50;21.70;;;;;;;-146.48;100.00;44655.44;5280734;28;20055;-69
2022/01/13 05:13:15;;;;;;;65.03;20.63;;;;;;;-146.48;100.00;44529.69;5281326;28;20055;-69
2022/01/13 05:15:48;;;;;;;93.13;22.50;;;;;;;-146.48;100.00;44495.75;5279985;28;20040;-69
2022/01/13 05:18:30;;;;;;;90.87;23.70;;;;;;;-146.48;100.00;44551.66;5281052;28;20028;-69
2022/01/13 05:21:05;;;;;;;91.60;24.40;;;;;;;-146.48;100.00;44437.88;5279897;28;20036;-69
2022/01/13 05:23:37;;;;;;;69.23;23.43;;;;;;;-146.48;100.00;44298.19;5280645;28;20044;-69
2022/01/13 05:26:09;;;;;;;97.70;24.30;;;;;;;-146.48;100.00;44250.28;5280791;28;20507;-69
2022/01/13 05:28:41;;;;;;;79.97;22.30;;;;;;;-146.48;100.00;44310.16;5280831;28;20029;-69
2022/01/13 05:31:12;;;;;;;80.07;19.90;;;;;;;-146.48;100.00;44182.44;5284765;28;20055;-68
2022/01/13 05:33:44;;;;;;;92.20;22.20;;;;;;;-146.48;100.00;44226.34;5284139;28;20029;-68
2022/01/13 05:36:15;;;;;;;86.68;23.35;;;;;;;-146.48;100.00;44288.22;5283945;28;20020;-69
2022/01/13 05:38:47;;;;;;;104.40;23.60;;;;;;;-146.48;100.00;44214.38;5284005;28;20082;-68
2022/01/13 05:41:19;;;;;;;95.20;24.27;;;;;;;-146.48;100.00;44206.38;5284401;28;20115;-68
2022/01/13 05:43:50;;;;;;;87.37;22.77;;;;;;;-146.48;100.00;44174.47;5283356;28;20111;-69
2022/01/13 05:46:21;;;;;;;94.97;23.70;;;;;;;-146.48;100.00;44150.50;5284622;28;20033;-68
2022/01/13 05:48:54;;;;;;;90.83;24.20;;;;;;;-146.48;100.00;44058.72;5283733;28;20044;-68
2022/01/13 05:51:25;;;;;;;86.30;21.83;;;;;;;-146.48;100.00;44170.47;5283622;28;20060;-69
2022/01/13 05:53:56;;;;;;;100.33;25.40;;;;;;;-146.48;100.00;44192.41;5283754;28;20554;-68
2022/01/13 05:56:27;;;;;;;86.57;25.47;;;;;;;-146.48;100.00;44278.22;5283736;28;20474;-68
2022/01/13 05:58:59;;;;;;;84.40;25.30;;;;;;;-146.48;100.00;44288.22;5283765;28;20035;-68
2022/01/13 06:01:30;;;;;;;91.17;25.20;;;;;;;-146.48;100.00;44384.00;5284253;28;20028;-68
2022/01/13 06:04:01;;;;;;;105.00;26.53;;;;;;;-146.48;100.00;44423.91;5282717;28;20383;-68
2022/01/13 06:06:33;;;;;;;98.17;25.97;;;;;;;-146.48;100.00;44372.03;5284080;28;20028;-68
2022/01/13 06:09:04;;;;;;;97.97;27.70;;;;;;;-146.48;100.00;44409.94;5283225;28;20119;-68
2022/01/13 06:11:43;;;;;;;114.67;28.00;;;;;;;-146.48;100.00;44348.09;5283186;28;20036;-68
2022/01/13 06:14:14;;;;;;;122.13;27.45;;;;;;;-146.48;100.00;44386.00;5284087;28;20032;-68
2022/01/13 06:16:45;;;;;;;106.03;25.90;;;;;;;-146.48;100.00;44320.13;5283176;28;20111;-68
2022/01/13 06:19:17;;;;;;;113.03;27.00;;;;;;;-146.48;100.00;44427.91;5283290;28;20094;-68
2022/01/13 06:21:49;;;;;;;109.23;28.50;;;;;;;-146.48;100.00;44489.78;5283430;28;20020;-68
2022/01/13 06:24:20;;;;;;;120.20;26.47;;;;;;;-146.48;100.00;44407.94;5282945;28;20029;-68
2022/01/13 06:26:52;;;;;;;107.83;24.43;;;;;;;-146.48;100.00;44322.13;5283102;28;20331;-68
2022/01/13 06:29:23;;;;;;;97.30;25.90;;;;;;;-146.48;100.00;44290.22;5283446;28;20075;-68
2022/01/13 06:31:56;;;;;;;138.50;26.17;;;;;;;-146.48;100.00;44186.44;5282530;28;20037;-68
2022/01/13 06:34:27;;;;;;;128.87;24.07;;;;;;;-146.48;100.00;44230.34;5283757;28;20027;-68
2022/01/13 06:36:58;;;;;;;107.83;26.57;;;;;;;-146.48;100.00;44190.44;5282737;28;20024;-69
2022/01/13 06:39:30;;;;;;;103.27;22.13;;;;;;;-146.48;100.00;44200.41;5281808;28;20024;-68
2022/01/13 06:42:01;;;;;;;119.77;23.27;;;;;;;-146.48;100.00;44192.41;5282188;28;20025;-68
2022/01/13 06:44:33;;;;;;;103.20;24.03;;;;;;;-146.48;100.00;44258.28;5283377;28;20060;-68
2022/01/13 06:47:05;;;;;;;100.30;22.77;;;;;;;-146.48;100.00;44220.34;5281929;28;20039;-68
2022/01/13 06:49:38;;;;;;;86.67;22.30;;;;;;;-146.48;100.00;44222.34;5282677;28;20051;-69
2022/01/13 06:52:10;;;;;;;104.57;23.70;;;;;;;-146.48;100.00;44184.44;5283022;28;20564;-69
2022/01/13 06:54:41;;;;;;;116.33;22.23;;;;;;;-146.48;100.00;44186.44;5281712;28;20062;-69
2022/01/13 06:57:12;;;;;;;101.43;23.00;;;;;;;-146.48;100.00;44194.41;5283269;28;20471;-70
2022/01/13 06:59:43;;;;;;;132.37;23.70;;;;;;;-146.48;100.00;44172.47;5281806;28;20024;-70
2022/01/13 07:02:15;;;;;;;99.68;22.95;;;;;;;-146.48;100.00;44256.28;5282979;28;20036;-69
2022/01/13 07:04:46;;;;;;;134.93;24.47;;;;;;;-146.48;100.00;44316.16;5282163;28;20024;-70
2022/01/13 07:07:17;;;;;;;100.10;24.00;;;;;;;-146.48;100.00;44374.03;5282344;28;20036;-70
2022/01/13 07:09:49;;;;;;;125.10;24.17;;;;;;;-146.48;100.00;44270.25;5282303;28;20099;-69
2022/01/13 07:12:20;;;;;;;120.20;24.10;;;;;;;-146.48;100.00;44346.09;5282826;28;20024;-70
2022/01/13 07:14:51;;;;;;;115.00;23.50;;;;;;;-146.48;100.00;44336.09;5281334;28;20068;-69
2022/01/13 07:17:22;;;;;;;110.87;25.33;;;;;;;-146.48;100.00;44340.09;5282520;28;20016;-70
2022/01/13 07:19:54;;;;;;;140.33;25.03;;;;;;;-146.48;100.00;44405.97;5282188;28;20033;-70
2022/01/13 07:22:25;;;;;;;139.03;24.87;;;;;;;-146.48;100.00;44393.97;5281483;28;20054;-69
2022/01/13 07:24:57;;;;;;;126.80;25.03;;;;;;;-146.48;100.00;44390.00;5281741;28;20044;-70
2022/01/13 07:27:28;;;;;;;115.57;24.83;;;;;;;-146.48;100.00;44435.91;5281513;28;20020;-69
2022/01/13 07:29:59;;;;;;;151.43;26.53;;;;;;;-146.48;100.00;44567.63;5281819;28;20024;-69
2022/01/13 07:32:30;;;;;;;106.20;23.43;;;;;;;-146.48;100.00;44409.94;5282519;28;20024;-69
2022/01/13 07:35:02;;;;;;;127.73;23.67;;;;;;;-146.48;100.00;44344.09;5281029;28;20031;-69
2022/01/13 07:37:33;;;;;;;116.17;21.77;;;;;;;-146.48;100.00;44378.03;5282257;28;20023;-69
2022/01/13 07:40:05;;;;;;;89.83;22.77;;;;;;;-146.48;100.00;44324.13;5281446;28;20479;-69
2022/01/13 07:42:41;;;;;;;103.87;23.83;;;;;;;-146.48;100.00;44320.13;5281271;28;20136;-70
2022/01/13 07:45:15;;;;;;;94.27;24.33;;;;;;;-146.48;100.00;44405.97;5282062;28;20044;-69
2022/01/13 07:47:46;;;;;;;82.73;20.53;;;;;;;-146.48;100.00;44362.06;5281517;28;20036;-69
2022/01/13 07:50:18;;;;;;;79.60;22.33;;;;;;;-146.48;100.00;44390.00;5281115;28;20182;-69
2022/01/13 07:52:49;;;;;;;81.37;20.60;;;;;;;-146.48;100.00;44360.06;5281116;28;20039;-67
2022/01/13 07:55:20;;;;;;;92.82;20.70;;;;;;;-146.48;100.00;44318.16;5282105;28;20024;-68
2022/01/13 07:57:52;;;;;;;96.27;21.30;;;;;;;-146.48;100.00;44437.88;5280618;28;20040;-69
2022/01/13 08:00:23;;;;;;;83.15;20.35;;;;;;;-146.48;100.00;44417.94;5281943;28;20066;-68
2022/01/13 08:02:54;;;;;;;85.10;21.20;;;;;;;-146.48;100.00;44366.03;5280569;28;20040;-69
2022/01/13 08:05:26;;;;;;;89.10;21.00;;;;;;;-146.48;100.00;44372.03;5281891;28;20031;-68
2022/01/13 08:07:57;;;;;;;73.15;20.85;;;;;;;-146.48;100.00;44401.97;5281379;28;20039;-68
2022/01/13 08:10:28;;;;;;;105.10;21.77;;;;;;;-146.48;100.00;44366.03;5281100;28;20020;-68
2022/01/13 08:13:00;;;;;;;83.93;20.37;;;;;;;-146.48;100.00;44380.00;5281199;28;20025;-68
2022/01/13 08:15:34;;;;;;;78.00;19.27;;;;;;;-146.48;100.00;44366.03;5281642;28;20115;-68
2022/01/13 08:20:55;;;;;;;77.03;19.70;;;;;;;-146.48;100.00;44497.75;5281431;28;20040;-68
2022/01/13 08:23:27;;;;;;;77.67;21.30;;;;;;;-146.48;100.00;44372.03;5281982;28;20024;-68
2022/01/13 08:25:58;;;;;;;83.13;20.00;;;;;;;-146.48;100.00;44421.94;5280041;28;20032;-68
2022/01/13 08:28:30;;;;;;;88.78;20.73;;;;;;;-146.48;100.00;44423.91;5281870;28;20021;-68
2022/01/13 08:31:03;;;;;;;82.70;20.23;;;;;;;-146.48;100.00;44573.59;5279974;28;20028;-68
2022/01/13 08:33:35;;;;;;;83.37;20.10;;;;;;;-146.48;100.00;44461.84;5281695;28;20062;-68
2022/01/13 08:36:06;;;;;;;64.83;19.50;;;;;;;-146.48;100.00;44481.78;5281062;28;20049;-68
2022/01/13 08:38:38;;;;;;;75.37;19.30;;;;;;;-146.48;100.00;44461.84;5280074;28;20025;-70
2022/01/13 08:41:09;;;;;;;87.50;21.20;;;;;;;-146.48;100.00;44388.00;5281679;28;20028;-68
2022/01/13 08:43:41;;;;;;;84.57;19.17;;;;;;;-146.48;100.00;44427.91;5281033;28;20027;-69
2022/01/13 08:46:12;;;;;;;79.00;20.00;;;;;;;-146.48;100.00;44501.75;5280492;28;20116;-68
2022/01/13 08:48:43;;;;;;;82.47;20.00;;;;;;;-146.48;100.00;44489.78;5280775;28;20138;-68
2022/01/13 08:51:17;;;;;;;76.07;20.50;;;;;;;-146.48;100.00;44647.44;5281161;28;20492;-68
2022/01/13 08:53:48;;;;;;;94.40;21.17;;;;;;;-146.48;100.00;44759.22;5280268;28;20024;-69
2022/01/13 08:56:21;;;;;;;82.50;21.42;;;;;;;-146.48;100.00;44769.19;5281335;28;20028;-68
2022/01/13 08:58:52;;;;;;;75.00;18.60;;;;;;;-146.48;100.00;44753.22;5295400;28;20032;-68
2022/01/13 09:01:24;;;;;;;89.00;20.07;;;;;;;-146.48;100.00;44741.25;5301874;28;20024;-68
2022/01/13 09:03:55;;;;;;;91.35;21.17;;;;;;;-146.48;100.00;44769.19;5303016;28;20488;-68
2022/01/13 09:06:26;;;;;;;74.60;19.40;;;;;;;-146.48;100.00;44717.31;5305469;28;20052;-68
2022/01/13 09:08:58;;;;;;;77.00;21.75;;;;;;;-146.48;100.00;44701.34;5305252;28;20020;-69
2022/01/13 09:11:29;;;;;;;94.53;19.85;;;;;;;-146.48;100.00;44721.28;5306183;28;20364;-69
2022/01/13 09:14:00;;;;;;;84.32;20.40;;;;;;;-146.48;100.00;44890.94;5304692;28;20016;-68
2022/01/13 09:16:41;;;;;;;71.13;20.42;;;;;;;-146.48;100.00;44936.84;5306315;28;20024;-69
2022/01/13 09:19:14;;;;;;;78.07;20.15;;;;;;;-146.48;100.00;45002.72;5306362;28;20036;-69
2022/01/13 09:21:47;;;;;;;85.43;20.60;;;;;;;-146.48;100.00;44932.88;5304766;28;20035;-68
2022/01/13 09:24:21;;;;;;;124.32;22.35;;;;;;;-146.48;100.00;44966.78;5306080;28;20105;-68
2022/01/13 09:26:52;;;;;;;73.90;20.23;;;;;;;-146.48;100.00;44878.97;5305380;28;20126;-68
2022/01/13 09:29:24;;;;;;;80.93;20.27;;;;;;;-146.48;100.00;44884.97;5305339;28;20172;-68
2022/01/13 09:31:55;;;;;;;83.40;20.10;;;;;;;-146.48;100.00;44938.84;5305305;28;20031;-68
2022/01/13 09:34:26;;;;;;;79.25;19.73;;;;;;;-146.48;100.00;44827.06;5304855;28;20355;-68
2022/01/13 09:36:58;;;;;;;90.90;18.77;;;;;;;-146.48;100.00;44777.19;5305214;28;20042;-68
2022/01/13 09:39:29;;;;;;;70.97;18.65;;;;;;;-146.48;100.00;44763.22;5306054;28;20379;-69
2022/01/13 09:42:01;;;;;;;70.45;17.90;;;;;;;-146.48;100.00;44743.25;5304304;28;20035;-69
2022/01/13 09:44:33;;;;;;;85.38;20.45;;;;;;;-146.48;100.00;44625.50;5303583;28;20054;-68
2022/01/13 09:47:04;;;;;;;70.15;17.80;;;;;;;-146.48;100.00;44663.41;5303984;28;20035;-69
2022/01/13 09:49:36;;;;;;;70.95;19.45;;;;;;;-146.48;100.00;44749.25;5303364;28;20093;-67
2022/01/13 09:52:07;;;;;;;78.13;20.43;;;;;;;-146.48;100.00;44801.13;5304010;28;20020;-68
2022/01/13 09:54:38;;;;;;;102.65;20.95;;;;;;;-146.48;100.00;44821.09;5303518;28;20490;-68
2022/01/13 09:57:10;;;;;;;83.05;20.63;;;;;;;-146.48;100.00;44924.88;5302791;28;20024;-68
2022/01/13 09:59:41;;;;;;;76.28;19.38;;;;;;;-146.48;100.00;44966.78;5303350;28;20047;-68
2022/01/13 10:02:12;;;;;;;74.32;17.75;;;;;;;-146.48;100.00;44888.94;5303539;28;20460;-69
2022/01/13 10:04:53;;;;;;;99.03;20.77;;;;;;;-146.48;100.00;44972.78;5303778;28;20027;-69
2022/01/13 10:07:45;;;;;;;77.28;19.77;;;;;;;-146.48;100.00;45166.41;5304113;28;20494;-69
2022/01/13 10:10:20;;;;;;;76.05;17.55;;;;;;;-146.48;100.00;45086.56;5302480;28;20065;-69
2022/01/13 10:13:08;;;;;;;80.25;19.33;;;;;;;-146.48;100.00;45138.47;5303148;28;20380;-69
2022/01/13 10:18:40;;;;;;;74.07;17.80;;;;;;;-146.48;100.00;45128.47;5303140;28;20040;-69
2022/01/13 10:21:15;;;;;;;88.15;18.23;;;;;;;-146.48;100.00;45084.56;5293658;28;20428;-69
2022/01/13 10:24:23;;;;;;;84.93;18.67;;;;;;;-146.48;100.00;45272.19;5290469;28;20302;-67
2022/01/13 10:27:04;;;;;;;94.65;19.30;;;;;;;-146.48;100.00;45138.47;5248295;28;20079;-67
2022/01/13 10:29:43;;;;;;;83.13;19.05;;;;;;;-146.48;100.00;45092.56;5282070;28;20028;-69
2022/01/13 10:32:18;;;;;;;81.53;19.20;;;;;;;-146.48;100.00;45036.66;5280971;28;20494;-67
2022/01/13 10:34:57;;;;;;;66.45;17.25;;;;;;;-146.48;100.00;44982.75;5280357;28;20110;-69
2022/01/13 10:37:37;;;;;;;87.22;18.83;;;;;;;-146.48;100.00;44992.75;5281302;28;20483;-67
2022/01/13 10:40:21;;;;;;;82.90;19.95;;;;;;;-146.48;100.00;44944.84;5282261;28;20024;-67
2022/01/13 10:45:26;;;;;;;79.90;19.27;;;;;;;-146.48;100.00;44837.06;5281334;28;20036;-67
2022/01/13 10:48:03;;;;;;;74.25;19.15;;;;;;;-146.48;100.00;44946.84;5281034;28;20041;-67
2022/01/13 10:50:37;;;;;;;65.50;17.17;;;;;;;-146.48;100.00;44956.81;5282156;28;20036;-67
2022/01/13 10:53:39;;;;;;;77.00;18.08;;;;;;;-146.48;100.00;45000.72;5281133;28;20028;-69
2022/01/13 10:56:14;;;;;;;64.32;16.80;;;;;;;-146.48;100.00;44878.97;5281848;28;20028;-68
2022/01/13 10:58:53;;;;;;;90.00;18.13;;;;;;;-146.48;100.00;44884.97;5280611;28;20115;-67
2022/01/13 11:01:34;;;;;;;52.88;15.52;;;;;;;-146.48;100.00;44873.00;5281779;28;20424;-68
2022/01/13 11:04:15;;;;;;;67.72;16.98;;;;;;;-146.48;100.00;44874.97;5281148;28;20016;-68
2022/01/13 11:06:46;;;;;;;51.53;16.30;;;;;;;-146.48;100.00;44785.16;5280600;28;20111;-67
2022/01/13 11:09:18;;;;;;;56.28;17.25;;;;;;;-146.48;100.00;44813.09;5281703;28;20108;-67
2022/01/13 11:11:57;;;;;;;54.90;17.08;;;;;;;-146.48;100.00;44962.81;5281071;28;20017;-67
2022/01/13 11:14:28;;;;;;;57.25;18.92;;;;;;;-146.48;100.00;44952.81;5281139;28;20032;-68
2022/01/13 11:17:00;;;;;;;49.50;17.00;;;;;;;-146.48;100.00;44906.91;5280381;28;20086;-68
2022/01/13 11:19:32;;;;;;;49.60;17.42;;;;;;;-146.48;100.00;44952.81;5298263;28;20039;-69
2022/01/13 11:22:04;;;;;;;58.38;17.02;;;;;;;-146.48;100.00;44884.97;5301758;28;20379;-68
2022/01/13 11:24:36;;;;;;;73.28;15.88;;;;;;;-146.48;100.00;44829.06;5302006;28;20027;-69
2022/01/13 11:27:08;;;;;;;54.13;16.67;;;;;;;-146.48;100.00;44753.22;5300623;28;20492;-69
2022/01/13 11:29:40;;;;;;;58.22;17.08;;;;;;;-146.48;100.00;44733.28;5301628;28;20146;-70
2022/01/13 11:32:15;;;;;;;66.85;17.30;;;;;;;-146.48;100.00;44884.97;5301900;28;20020;-70
2022/01/13 11:34:47;;;;;;;61.13;18.80;;;;;;;-146.48;100.00;44984.75;5301005;28;20081;-69
2022/01/13 11:37:19;;;;;;;52.42;17.92;;;;;;;-146.48;100.00;44863.00;5302029;28;20024;-70
2022/01/13 11:39:50;;;;;;;51.85;17.30;;;;;;;-146.48;100.00;44861.00;5301380;28;20367;-70
2022/01/13 11:42:23;;;;;;;60.35;17.65;;;;;;;-146.48;100.00;44747.25;5301755;28;20020;-70